sensor_id;sensor_type;location;lat;lon;timestamp;pressure;altitude;pressure_sealevel;temperature;humidity
37778;BME280;23615;51.506;7.678;2022-09-27T00:01:21;97900.19;;;11.14;100.00
37778;BME280;23615;51.506;7.678;2022-09-27T00:03:46;97902.06;;;11.14;100.00
37778;BME280;23615;51.506;7.678;2022-09-27T00:06:15;97907.88;;;11.21;100.00
37778;BME280;23615;51.506;7.678;2022-09-27T00:08:42;97916.25;;;11.09;100.00
37778;BME280;23615;51.506;7.678;2022-09-27T00:11:29;97919.22;;;11.03;100.00
37778;BME280;23615;51.506;7.678;2022-09-27T00:13:57;97922.16;;;11.06;100.00
37778;BME280;23615;51.506;7.678;2022-09-27T00:16:25;97922.53;;;10.84;100.00
37778;BME280;23615;51.506;7.678;2022-09-27T00:18:51;97930.25;;;10.91;100.00
37778;BME280;23615;51.506;7.678;2022-09-27T00:21:16;97927.47;;;10.67;100.00
37778;BME280;23615;51.506;7.678;2022-09-27T00:23:42;97935.38;;;10.82;100.00
37778;BME280;23615;51.506;7.678;2022-09-27T00:26:09;97933.63;;;10.58;100.00
37778;BME280;23615;51.506;7.678;2022-09-27T00:28:35;97936.75;;;10.75;100.00
37778;BME280;23615;51.506;7.678;2022-09-27T00:31:01;97932.56;;;10.64;100.00
37778;BME280;23615;51.506;7.678;2022-09-27T00:33:27;97932.25;;;10.70;100.00
37778;BME280;23615;51.506;7.678;2022-09-27T00:35:52;97933.78;;;10.81;100.00
37778;BME280;23615;51.506;7.678;2022-09-27T00:38:17;97944.03;;;10.59;100.00
37778;BME280;23615;51.506;7.678;2022-09-27T00:40:43;97938.13;;;10.67;100.00
37778;BME280;23615;51.506;7.678;2022-09-27T00:43:16;97943.50;;;10.62;100.00
37778;BME280;23615;51.506;7.678;2022-09-27T00:45:47;97948.25;;;10.70;100.00
37778;BME280;23615;51.506;7.678;2022-09-27T00:48:17;97949.84;;;10.66;100.00
37778;BME280;23615;51.506;7.678;2022-09-27T00:50:48;97943.66;;;10.81;100.00
37778;BME280;23615;51.506;7.678;2022-09-27T00:53:18;97944.19;;;10.78;100.00
37778;BME280;23615;51.506;7.678;2022-09-27T00:55:51;97949.22;;;10.90;100.00
37778;BME280;23615;51.506;7.678;2022-09-27T00:58:20;97959.13;;;10.79;100.00
37778;BME280;23615;51.506;7.678;2022-09-27T01:00:51;97953.59;;;10.70;100.00
37778;BME280;23615;51.506;7.678;2022-09-27T01:03:28;97949.78;;;10.81;100.00
37778;BME280;23615;51.506;7.678;2022-09-27T01:05:56;97953.53;;;10.75;100.00
37778;BME280;23615;51.506;7.678;2022-09-27T01:08:22;97970.63;;;10.74;100.00
37778;BME280;23615;51.506;7.678;2022-09-27T01:11:13;97965.84;;;10.71;100.00
37778;BME280;23615;51.506;7.678;2022-09-27T01:13:57;97970.16;;;10.57;100.00
37778;BME280;23615;51.506;7.678;2022-09-27T01:21:50;97972.56;;;10.59;100.00
37778;BME280;23615;51.506;7.678;2022-09-27T01:41:31;97979.78;;;10.58;100.00
37778;BME280;23615;51.506;7.678;2022-09-27T01:44:03;97984.63;;;10.41;100.00
37778;BME280;23615;51.506;7.678;2022-09-27T01:46:38;97987.81;;;10.48;100.00
37778;BME280;23615;51.506;7.678;2022-09-27T01:49:14;97986.25;;;10.42;100.00
37778;BME280;23615;51.506;7.678;2022-09-27T01:51:45;97983.59;;;10.37;100.00
37778;BME280;23615;51.506;7.678;2022-09-27T01:54:16;97983.88;;;10.35;100.00
37778;BME280;23615;51.506;7.678;2022-09-27T01:56:47;97988.63;;;10.43;100.00
37778;BME280;23615;51.506;7.678;2022-09-27T01:59:19;97989.97;;;10.41;100.00
37778;BME280;23615;51.506;7.678;2022-09-27T02:01:49;97987.88;;;10.38;100.00
37778;BME280;23615;51.506;7.678;2022-09-27T02:04:21;97989.97;;;10.46;100.00
37778;BME280;23615;51.506;7.678;2022-09-27T02:06:51;97990.22;;;10.44;100.00
37778;BME280;23615;51.506;7.678;2022-09-27T02:09:22;97988.91;;;10.42;100.00
37778;BME280;23615;51.506;7.678;2022-09-27T02:11:53;97991.03;;;10.45;100.00
37778;BME280;23615;51.506;7.678;2022-09-27T02:14:34;97998.47;;;10.48;100.00
37778;BME280;23615;51.506;7.678;2022-09-27T02:20:28;98000.06;;;10.54;100.00
37778;BME280;23615;51.506;7.678;2022-09-27T02:23:03;97990.78;;;10.46;100.00
37778;BME280;23615;51.506;7.678;2022-09-27T02:25:41;97994.75;;;10.49;100.00
37778;BME280;23615;51.506;7.678;2022-09-27T02:30:47;97998.72;;;10.52;100.00
37778;BME280;23615;51.506;7.678;2022-09-27T02:33:13;98000.34;;;10.47;100.00
37778;BME280;23615;51.506;7.678;2022-09-27T02:35:38;97986.31;;;10.27;100.00
37778;BME280;23615;51.506;7.678;2022-09-27T02:38:05;97994.19;;;10.47;100.00
37778;BME280;23615;51.506;7.678;2022-09-27T02:40:33;97994.47;;;10.56;100.00
37778;BME280;23615;51.506;7.678;2022-09-27T02:43:01;97994.19;;;10.52;100.00
37778;BME280;23615;51.506;7.678;2022-09-27T02:45:41;97997.41;;;10.54;100.00
37778;BME280;23615;51.506;7.678;2022-09-27T02:48:28;97996.59;;;10.54;100.00
37778;BME280;23615;51.506;7.678;2022-09-27T02:51:12;98002.75;;;10.44;100.00
37778;BME280;23615;51.506;7.678;2022-09-27T02:59:12;98001.97;;;10.43;100.00
37778;BME280;23615;51.506;7.678;2022-09-27T03:04:19;98003.34;;;10.26;100.00
37778;BME280;23615;51.506;7.678;2022-09-27T03:06:47;98006.53;;;10.33;100.00
37778;BME280;23615;51.506;7.678;2022-09-27T03:09:41;98011.84;;;10.33;100.00
37778;BME280;23615;51.506;7.678;2022-09-27T03:12:08;98016.41;;;10.27;100.00
37778;BME280;23615;51.506;7.678;2022-09-27T03:14:33;98015.63;;;10.27;100.00
37778;BME280;23615;51.506;7.678;2022-09-27T03:16:59;98005.50;;;10.29;100.00
37778;BME280;23615;51.506;7.678;2022-09-27T03:19:24;98000.66;;;10.36;100.00
37778;BME280;23615;51.506;7.678;2022-09-27T03:21:49;97999.56;;;10.42;100.00
37778;BME280;23615;51.506;7.678;2022-09-27T03:24:15;98002.22;;;10.42;100.00
37778;BME280;23615;51.506;7.678;2022-09-27T03:26:40;98026.28;;;10.27;100.00
37778;BME280;23615;51.506;7.678;2022-09-27T03:29:05;98020.41;;;10.14;100.00
37778;BME280;23615;51.506;7.678;2022-09-27T03:31:31;98016.41;;;10.12;100.00
37778;BME280;23615;51.506;7.678;2022-09-27T03:33:56;98016.13;;;10.13;100.00
37778;BME280;23615;51.506;7.678;2022-09-27T03:36:21;98022.78;;;10.16;100.00
37778;BME280;23615;51.506;7.678;2022-09-27T03:38:46;98029.19;;;10.25;100.00
37778;BME280;23615;51.506;7.678;2022-09-27T03:41:12;98028.66;;;10.33;100.00
37778;BME280;23615;51.506;7.678;2022-09-27T03:43:37;98028.94;;;10.27;100.00
37778;BME280;23615;51.506;7.678;2022-09-27T03:46:03;98038.00;;;10.26;100.00
37778;BME280;23615;51.506;7.678;2022-09-27T03:48:28;98035.84;;;10.33;100.00
37778;BME280;23615;51.506;7.678;2022-09-27T03:50:55;98029.19;;;10.20;100.00
37778;BME280;23615;51.506;7.678;2022-09-27T03:53:21;98036.44;;;10.20;100.00
37778;BME280;23615;51.506;7.678;2022-09-27T03:55:46;98033.97;;;10.13;100.00
37778;BME280;23615;51.506;7.678;2022-09-27T03:58:12;98037.47;;;10.08;100.00
37778;BME280;23615;51.506;7.678;2022-09-27T04:00:37;98039.31;;;10.13;100.00
37778;BME280;23615;51.506;7.678;2022-09-27T04:03:03;98036.91;;;10.17;100.00
37778;BME280;23615;51.506;7.678;2022-09-27T04:05:29;98035.59;;;10.14;100.00
37778;BME280;23615;51.506;7.678;2022-09-27T04:07:54;98039.56;;;10.11;100.00
37778;BME280;23615;51.506;7.678;2022-09-27T04:10:20;98034.00;;;10.03;100.00
37778;BME280;23615;51.506;7.678;2022-09-27T04:12:46;98034.53;;;10.10;100.00
37778;BME280;23615;51.506;7.678;2022-09-27T04:15:11;98035.06;;;10.17;100.00
37778;BME280;23615;51.506;7.678;2022-09-27T04:17:40;98036.97;;;10.01;100.00
37778;BME280;23615;51.506;7.678;2022-09-27T04:20:06;98037.47;;;9.98;100.00
37778;BME280;23615;51.506;7.678;2022-09-27T04:22:31;98044.94;;;9.96;100.00
37778;BME280;23615;51.506;7.678;2022-09-27T04:24:56;98048.38;;;10.02;99.91
37778;BME280;23615;51.506;7.678;2022-09-27T04:27:22;98053.19;;;10.00;99.78
37778;BME280;23615;51.506;7.678;2022-09-27T04:29:47;98053.47;;;10.08;99.34
37778;BME280;23615;51.506;7.678;2022-09-27T04:32:13;98063.56;;;10.17;99.00
37778;BME280;23615;51.506;7.678;2022-09-27T04:34:39;98059.59;;;10.09;99.77
37778;BME280;23615;51.506;7.678;2022-09-27T04:37:23;98069.44;;;10.13;99.79
37778;BME280;23615;51.506;7.678;2022-09-27T04:39:48;98058.78;;;10.08;99.15
37778;BME280;23615;51.506;7.678;2022-09-27T04:42:14;98079.03;;;9.99;99.47
37778;BME280;23615;51.506;7.678;2022-09-27T04:44:40;98075.56;;;9.94;100.00
37778;BME280;23615;51.506;7.678;2022-09-27T04:47:05;98074.25;;;9.91;100.00
37778;BME280;23615;51.506;7.678;2022-09-27T04:49:30;98074.50;;;10.05;100.00
37778;BME280;23615;51.506;7.678;2022-09-27T04:51:56;98073.69;;;10.14;100.00
37778;BME280;23615;51.506;7.678;2022-09-27T04:54:21;98080.63;;;10.10;99.46
37778;BME280;23615;51.506;7.678;2022-09-27T04:56:46;98071.59;;;10.01;99.62
37778;BME280;23615;51.506;7.678;2022-09-27T04:59:13;98087.56;;;10.06;99.33
37778;BME280;23615;51.506;7.678;2022-09-27T05:01:38;98089.94;;;9.93;100.00
37778;BME280;23615;51.506;7.678;2022-09-27T05:04:04;98094.50;;;10.07;99.89
37778;BME280;23615;51.506;7.678;2022-09-27T05:06:29;98102.75;;;10.01;99.34
37778;BME280;23615;51.506;7.678;2022-09-27T05:08:54;98096.63;;;10.05;99.46
37778;BME280;23615;51.506;7.678;2022-09-27T05:11:20;98094.75;;;10.01;99.72
37778;BME280;23615;51.506;7.678;2022-09-27T05:13:46;98103.25;;;10.03;99.87
37778;BME280;23615;51.506;7.678;2022-09-27T05:16:11;98103.25;;;10.03;99.12
37778;BME280;23615;51.506;7.678;2022-09-27T05:18:37;98101.41;;;9.98;99.48
37778;BME280;23615;51.506;7.678;2022-09-27T05:21:02;98108.31;;;9.94;100.00
37778;BME280;23615;51.506;7.678;2022-09-27T05:23:28;98107.25;;;9.85;99.90
37778;BME280;23615;51.506;7.678;2022-09-27T05:25:53;98119.50;;;9.86;100.00
37778;BME280;23615;51.506;7.678;2022-09-27T05:28:20;98117.91;;;9.80;100.00
37778;BME280;23615;51.506;7.678;2022-09-27T05:30:46;98115.81;;;9.82;100.00
37778;BME280;23615;51.506;7.678;2022-09-27T05:33:11;98117.66;;;9.92;100.00
37778;BME280;23615;51.506;7.678;2022-09-27T05:35:36;98119.25;;;9.83;100.00
37778;BME280;23615;51.506;7.678;2022-09-27T05:38:04;98116.59;;;9.98;100.00
37778;BME280;23615;51.506;7.678;2022-09-27T05:40:29;98121.41;;;9.91;100.00
37778;BME280;23615;51.506;7.678;2022-09-27T05:42:55;98111.56;;;10.01;100.00
37778;BME280;23615;51.506;7.678;2022-09-27T05:45:22;98118.97;;;9.94;100.00
37778;BME280;23615;51.506;7.678;2022-09-27T05:47:57;98112.06;;;9.88;100.00
37778;BME280;23615;51.506;7.678;2022-09-27T05:50:28;98132.59;;;9.98;100.00
37778;BME280;23615;51.506;7.678;2022-09-27T05:52:54;98139.25;;;10.05;100.00
37778;BME280;23615;51.506;7.678;2022-09-27T05:55:26;98129.91;;;10.03;100.00
37778;BME280;23615;51.506;7.678;2022-09-27T05:58:07;98130.97;;;9.97;100.00
37778;BME280;23615;51.506;7.678;2022-09-27T06:00:33;98139.78;;;9.97;99.92
37778;BME280;23615;51.506;7.678;2022-09-27T06:03:01;98135.53;;;10.01;99.85
37778;BME280;23615;51.506;7.678;2022-09-27T06:05:29;98136.81;;;9.94;100.00
37778;BME280;23615;51.506;7.678;2022-09-27T06:08:06;98142.16;;;9.94;100.00
37778;BME280;23615;51.506;7.678;2022-09-27T06:10:33;98136.81;;;9.94;100.00
37778;BME280;23615;51.506;7.678;2022-09-27T06:13:04;98147.50;;;9.99;100.00
37778;BME280;23615;51.506;7.678;2022-09-27T06:15:31;98151.25;;;10.08;100.00
37778;BME280;23615;51.506;7.678;2022-09-27T06:18:04;98144.03;;;9.88;99.68
37778;BME280;23615;51.506;7.678;2022-09-27T06:20:30;98147.75;;;9.87;100.00
37778;BME280;23615;51.506;7.678;2022-09-27T06:23:03;98149.91;;;10.00;99.91
37778;BME280;23615;51.506;7.678;2022-09-27T06:25:28;98149.91;;;9.90;99.36
37778;BME280;23615;51.506;7.678;2022-09-27T06:27:54;98150.97;;;9.89;99.44
37778;BME280;23615;51.506;7.678;2022-09-27T06:30:19;98156.03;;;9.91;99.69
37778;BME280;23615;51.506;7.678;2022-09-27T06:32:44;98151.22;;;9.83;100.00
37778;BME280;23615;51.506;7.678;2022-09-27T06:35:09;98149.34;;;9.93;100.00
37778;BME280;23615;51.506;7.678;2022-09-27T06:37:35;98159.50;;;10.01;99.29
37778;BME280;23615;51.506;7.678;2022-09-27T06:40:00;98157.91;;;10.00;99.08
37778;BME280;23615;51.506;7.678;2022-09-27T06:42:26;98158.97;;;10.09;99.72
37778;BME280;23615;51.506;7.678;2022-09-27T06:44:51;98163.53;;;10.19;99.31
37778;BME280;23615;51.506;7.678;2022-09-27T06:47:18;98167.53;;;10.27;99.02
37778;BME280;23615;51.506;7.678;2022-09-27T06:49:43;98169.38;;;10.21;98.75
37778;BME280;23615;51.506;7.678;2022-09-27T06:52:08;98165.91;;;10.21;99.35
37778;BME280;23615;51.506;7.678;2022-09-27T06:54:34;98159.25;;;10.38;99.05
37778;BME280;23615;51.506;7.678;2022-09-27T06:56:59;98161.91;;;10.33;98.46
37778;BME280;23615;51.506;7.678;2022-09-27T06:59:25;98172.31;;;10.40;98.37
37778;BME280;23615;51.506;7.678;2022-09-27T07:02:08;98175.00;;;10.45;98.02
37778;BME280;23615;51.506;7.678;2022-09-27T07:04:34;98177.63;;;10.50;98.23
37778;BME280;23615;51.506;7.678;2022-09-27T07:06:59;98170.97;;;10.47;97.48
37778;BME280;23615;51.506;7.678;2022-09-27T07:09:25;98181.88;;;10.56;98.04
37778;BME280;23615;51.506;7.678;2022-09-27T07:11:50;98180.84;;;10.62;96.50
37778;BME280;23615;51.506;7.678;2022-09-27T07:14:15;98188.81;;;10.47;96.70
37778;BME280;23615;51.506;7.678;2022-09-27T07:16:41;98190.44;;;10.48;96.97
37778;BME280;23615;51.506;7.678;2022-09-27T07:19:07;98193.38;;;10.46;97.42
37778;BME280;23615;51.506;7.678;2022-09-27T07:21:33;98209.63;;;10.60;97.02
37778;BME280;23615;51.506;7.678;2022-09-27T07:23:58;98212.28;;;10.60;95.72
37778;BME280;23615;51.506;7.678;2022-09-27T07:26:23;98209.34;;;10.57;96.17
37778;BME280;23615;51.506;7.678;2022-09-27T07:28:49;98213.63;;;10.53;96.06
37778;BME280;23615;51.506;7.678;2022-09-27T07:31:14;98219.25;;;10.46;95.84
37778;BME280;23615;51.506;7.678;2022-09-27T07:33:39;98224.03;;;10.39;95.52
37778;BME280;23615;51.506;7.678;2022-09-27T07:36:06;98221.88;;;10.31;95.53
37778;BME280;23615;51.506;7.678;2022-09-27T07:38:32;98213.88;;;10.31;95.37
37778;BME280;23615;51.506;7.678;2022-09-27T07:40:57;98227.44;;;10.09;95.34
37778;BME280;23615;51.506;7.678;2022-09-27T07:43:23;98223.69;;;10.05;95.29
37778;BME280;23615;51.506;7.678;2022-09-27T07:45:48;98226.09;;;10.01;95.82
37778;BME280;23615;51.506;7.678;2022-09-27T07:48:15;98230.84;;;9.84;95.73
37778;BME280;23615;51.506;7.678;2022-09-27T07:50:40;98242.59;;;9.98;96.58
37778;BME280;23615;51.506;7.678;2022-09-27T07:53:06;98242.88;;;9.92;96.95
37778;BME280;23615;51.506;7.678;2022-09-27T07:55:32;98247.69;;;10.00;96.61
37778;BME280;23615;51.506;7.678;2022-09-27T07:58:05;98245.00;;;9.90;96.95
37778;BME280;23615;51.506;7.678;2022-09-27T08:00:32;98245.50;;;9.87;97.27
37778;BME280;23615;51.506;7.678;2022-09-27T08:02:57;98249.50;;;9.94;97.73
37778;BME280;23615;51.506;7.678;2022-09-27T08:05:22;98250.06;;;9.96;96.47
37778;BME280;23615;51.506;7.678;2022-09-27T08:07:53;98257.78;;;10.03;97.52
37778;BME280;23615;51.506;7.678;2022-09-27T08:10:19;98261.28;;;10.08;97.26
37778;BME280;23615;51.506;7.678;2022-09-27T08:12:44;98254.59;;;10.01;96.46
37778;BME280;23615;51.506;7.678;2022-09-27T08:15:10;98254.31;;;9.92;96.63
37778;BME280;23615;51.506;7.678;2022-09-27T08:17:35;98256.47;;;10.05;96.86
37778;BME280;23615;51.506;7.678;2022-09-27T08:20:00;98263.69;;;10.15;96.81
37778;BME280;23615;51.506;7.678;2022-09-27T08:22:30;98266.06;;;10.11;95.94
37778;BME280;23615;51.506;7.678;2022-09-27T08:24:55;98261.81;;;10.10;96.35
37778;BME280;23615;51.506;7.678;2022-09-27T08:27:20;98266.06;;;10.06;96.36
37778;BME280;23615;51.506;7.678;2022-09-27T08:29:46;98269.53;;;10.07;96.59
37778;BME280;23615;51.506;7.678;2022-09-27T08:32:12;98272.97;;;9.97;96.30
37778;BME280;23615;51.506;7.678;2022-09-27T08:34:37;98274.56;;;10.03;96.45
37778;BME280;23615;51.506;7.678;2022-09-27T08:37:03;98272.75;;;10.09;96.63
37778;BME280;23615;51.506;7.678;2022-09-27T08:39:29;98279.38;;;10.11;96.68
37778;BME280;23615;51.506;7.678;2022-09-27T08:42:20;98282.41;;;10.25;96.59
37778;BME280;23615;51.506;7.678;2022-09-27T08:45:00;98286.41;;;10.33;96.66
37778;BME280;23615;51.506;7.678;2022-09-27T08:48:00;98284.03;;;10.46;95.91
37778;BME280;23615;51.506;7.678;2022-09-27T08:50:31;98286.41;;;10.43;95.31
37778;BME280;23615;51.506;7.678;2022-09-27T08:58:20;98286.41;;;10.43;95.15
37778;BME280;23615;51.506;7.678;2022-09-27T09:00:51;98293.84;;;10.31;94.66
37778;BME280;23615;51.506;7.678;2022-09-27T09:03:21;98289.06;;;10.33;95.52
37778;BME280;23615;51.506;7.678;2022-09-27T09:11:57;98285.06;;;10.30;95.28
37778;BME280;23615;51.506;7.678;2022-09-27T09:14:55;98295.47;;;10.32;94.93
37778;BME280;23615;51.506;7.678;2022-09-27T09:17:46;98288.25;;;10.32;95.19
37778;BME280;23615;51.506;7.678;2022-09-27T09:20:25;98294.66;;;10.31;95.55
37778;BME280;23615;51.506;7.678;2022-09-27T09:34:08;98288.56;;;10.51;95.37
37778;BME280;23615;51.506;7.678;2022-09-27T09:36:43;98290.72;;;10.64;95.59
37778;BME280;23615;51.506;7.678;2022-09-27T09:39:20;98286.44;;;10.88;94.87
37778;BME280;23615;51.506;7.678;2022-09-27T09:42:00;98284.28;;;10.96;93.96
37778;BME280;23615;51.506;7.678;2022-09-27T09:47:25;98300.84;;;10.87;91.96
37778;BME280;23615;51.506;7.678;2022-09-27T09:49:58;98283.47;;;10.75;90.78
37778;BME280;23615;51.506;7.678;2022-09-27T09:52:35;98287.50;;;10.72;91.05
37778;BME280;23615;51.506;7.678;2022-09-27T09:55:16;98280.81;;;10.75;91.98
37778;BME280;23615;51.506;7.678;2022-09-27T09:58:20;98286.97;;;10.80;91.90
37778;BME280;23615;51.506;7.678;2022-09-27T10:00:50;98279.25;;;10.74;91.14
37778;BME280;23615;51.506;7.678;2022-09-27T10:03:16;98272.84;;;10.80;91.75
37778;BME280;23615;51.506;7.678;2022-09-27T10:05:43;98279.22;;;10.89;91.31
37778;BME280;23615;51.506;7.678;2022-09-27T10:08:16;98277.09;;;10.71;91.24
37778;BME280;23615;51.506;7.678;2022-09-27T10:10:42;98283.75;;;10.68;91.51
37778;BME280;23615;51.506;7.678;2022-09-27T10:13:16;98273.91;;;10.69;91.65
37778;BME280;23615;51.506;7.678;2022-09-27T10:15:44;98276.28;;;10.75;91.92
37778;BME280;23615;51.506;7.678;2022-09-27T10:18:17;98282.69;;;10.90;92.18
37778;BME280;23615;51.506;7.678;2022-09-27T10:20:50;98274.13;;;11.03;91.56
37778;BME280;23615;51.506;7.678;2022-09-27T10:23:19;98277.09;;;10.86;91.58
37778;BME280;23615;51.506;7.678;2022-09-27T10:25:49;98270.41;;;10.94;91.86
37778;BME280;23615;51.506;7.678;2022-09-27T10:30:58;98270.13;;;10.95;90.61
37778;BME280;23615;51.506;7.678;2022-09-27T10:33:25;98273.59;;;11.06;90.61
37778;BME280;23615;51.506;7.678;2022-09-27T10:35:51;98272.53;;;11.07;89.87
37778;BME280;23615;51.506;7.678;2022-09-27T10:40:43;98265.00;;;11.29;90.44
37778;BME280;23615;51.506;7.678;2022-09-27T10:43:35;98263.38;;;11.43;89.15
37778;BME280;23615;51.506;7.678;2022-09-27T10:46:10;98263.06;;;11.55;89.04
37778;BME280;23615;51.506;7.678;2022-09-27T10:48:38;98274.59;;;11.40;88.30
37778;BME280;23615;51.506;7.678;2022-09-27T10:51:17;98262.59;;;11.38;87.35
37778;BME280;23615;51.506;7.678;2022-09-27T10:53:44;98261.78;;;11.42;87.28
37778;BME280;23615;51.506;7.678;2022-09-27T10:56:20;98266.34;;;11.37;87.56
37778;BME280;23615;51.506;7.678;2022-09-27T10:58:46;98269.84;;;11.27;86.65
37778;BME280;23615;51.506;7.678;2022-09-27T11:01:12;98264.72;;;11.31;87.60
37778;BME280;23615;51.506;7.678;2022-09-27T11:04:20;98268.47;;;11.30;86.83
37778;BME280;23615;51.506;7.678;2022-09-27T11:06:47;98270.03;;;11.46;89.09
37778;BME280;23615;51.506;7.678;2022-09-27T11:09:19;98268.38;;;11.60;88.80
37778;BME280;23615;51.506;7.678;2022-09-27T11:11:48;98261.66;;;11.68;87.99
37778;BME280;23615;51.506;7.678;2022-09-27T11:14:20;98273.16;;;11.68;88.13
37778;BME280;23615;51.506;7.678;2022-09-27T11:19:43;98277.22;;;11.50;86.98
37778;BME280;23615;51.506;7.678;2022-09-27T11:22:33;98272.47;;;11.37;87.13
37778;BME280;23615;51.506;7.678;2022-09-27T11:25:16;98265.50;;;11.46;88.70
37778;BME280;23615;51.506;7.678;2022-09-27T11:27:51;98266.78;;;11.59;88.08
37778;BME280;23615;51.506;7.678;2022-09-27T11:30:22;98269.94;;;11.66;87.87
37778;BME280;23615;51.506;7.678;2022-09-27T11:36:46;98267.84;;;11.63;87.71
37778;BME280;23615;51.506;7.678;2022-09-27T11:46:34;98258.41;;;12.30;85.07
37778;BME280;23615;51.506;7.678;2022-09-27T11:54:56;98249.31;;;12.31;83.77
37778;BME280;23615;51.506;7.678;2022-09-27T12:00:02;98244.28;;;12.24;83.96
37778;BME280;23615;51.506;7.678;2022-09-27T12:08:32;98238.63;;;11.87;84.97
37778;BME280;23615;51.506;7.678;2022-09-27T12:11:08;98238.31;;;11.93;85.05
37778;BME280;23615;51.506;7.678;2022-09-27T12:13:43;98233.25;;;11.97;84.83
37778;BME280;23615;51.506;7.678;2022-09-27T12:16:12;98230.50;;;12.07;84.89
37778;BME280;23615;51.506;7.678;2022-09-27T12:18:40;98235.31;;;12.05;83.12
37778;BME280;23615;51.506;7.678;2022-09-27T12:21:08;98229.75;;;12.02;82.84
37778;BME280;23615;51.506;7.678;2022-09-27T12:23:42;98233.13;;;12.12;82.02
37778;BME280;23615;51.506;7.678;2022-09-27T12:26:14;98239.88;;;12.05;81.54
37778;BME280;23615;51.506;7.678;2022-09-27T12:34:23;98245.25;;;12.38;79.98
37778;BME280;23615;51.506;7.678;2022-09-27T12:36:57;98245.72;;;12.51;79.83
37778;BME280;23615;51.506;7.678;2022-09-27T12:39:28;98244.72;;;12.42;79.76
37778;BME280;23615;51.506;7.678;2022-09-27T12:42:03;98247.19;;;12.33;80.23
37778;BME280;23615;51.506;7.678;2022-09-27T12:44:37;98241.34;;;12.26;81.34
37778;BME280;23615;51.506;7.678;2022-09-27T12:52:15;98242.75;;;12.18;82.72
37778;BME280;23615;51.506;7.678;2022-09-27T12:55:18;98241.38;;;12.21;82.67
37778;BME280;23615;51.506;7.678;2022-09-27T13:00:57;98247.19;;;12.33;82.03
37778;BME280;23615;51.506;7.678;2022-09-27T13:03:52;98245.78;;;12.41;80.64
37778;BME280;23615;51.506;7.678;2022-09-27T13:09:18;98249.44;;;12.55;78.63
37778;BME280;23615;51.506;7.678;2022-09-27T13:14:25;98237.13;;;12.54;79.64
37778;BME280;23615;51.506;7.678;2022-09-27T13:16:52;98233.53;;;12.34;79.47
37778;BME280;23615;51.506;7.678;2022-09-27T13:19:38;98233.28;;;12.31;79.06
37778;BME280;23615;51.506;7.678;2022-09-27T13:22:08;98233.91;;;12.18;79.62
37778;BME280;23615;51.506;7.678;2022-09-27T13:29:49;98256.75;;;12.00;81.78
37778;BME280;23615;51.506;7.678;2022-09-27T13:32:20;98254.97;;;11.75;83.94
37778;BME280;23615;51.506;7.678;2022-09-27T13:34:51;98252.94;;;11.52;85.61
37778;BME280;23615;51.506;7.678;2022-09-27T13:39:47;98248.44;;;11.32;87.46
37778;BME280;23615;51.506;7.678;2022-09-27T13:42:29;98247.13;;;11.30;88.50
37778;BME280;23615;51.506;7.678;2022-09-27T13:47:43;98255.69;;;11.16;88.54
37778;BME280;23615;51.506;7.678;2022-09-27T13:50:24;98256.53;;;11.07;89.04
37778;BME280;23615;51.506;7.678;2022-09-27T13:53:01;98259.97;;;11.12;90.56
37778;BME280;23615;51.506;7.678;2022-09-27T13:55:41;98251.41;;;11.20;90.15
37778;BME280;23615;51.506;7.678;2022-09-27T13:58:28;98254.91;;;11.16;89.81
37778;BME280;23615;51.506;7.678;2022-09-27T14:00:58;98252.78;;;11.18;89.88
37778;BME280;23615;51.506;7.678;2022-09-27T14:03:30;98247.94;;;11.20;90.68
37778;BME280;23615;51.506;7.678;2022-09-27T14:06:02;98246.88;;;11.26;90.98
37778;BME280;23615;51.506;7.678;2022-09-27T14:11:15;98254.81;;;11.46;90.49
37778;BME280;23615;51.506;7.678;2022-09-27T14:13:44;98251.34;;;11.41;90.02
37778;BME280;23615;51.506;7.678;2022-09-27T14:16:14;98250.03;;;11.43;89.52
37778;BME280;23615;51.506;7.678;2022-09-27T14:18:55;98255.09;;;11.45;89.33
37778;BME280;23615;51.506;7.678;2022-09-27T14:21:36;98248.91;;;11.54;89.23
37778;BME280;23615;51.506;7.678;2022-09-27T14:24:22;98256.66;;;11.56;88.84
37778;BME280;23615;51.506;7.678;2022-09-27T14:26:49;98251.03;;;11.62;89.85
37778;BME280;23615;51.506;7.678;2022-09-27T14:29:21;98247.53;;;11.62;88.35
37778;BME280;23615;51.506;7.678;2022-09-27T14:32:01;98251.81;;;11.58;88.76
37778;BME280;23615;51.506;7.678;2022-09-27T14:34:27;98255.03;;;11.60;88.15
37778;BME280;23615;51.506;7.678;2022-09-27T14:36:52;98249.75;;;11.45;88.04
37778;BME280;23615;51.506;7.678;2022-09-27T14:39:36;98255.66;;;11.37;88.33
37778;BME280;23615;51.506;7.678;2022-09-27T14:42:05;98258.31;;;11.37;88.56
37778;BME280;23615;51.506;7.678;2022-09-27T14:44:43;98261.53;;;11.34;88.10
37778;BME280;23615;51.506;7.678;2022-09-27T14:47:22;98266.06;;;11.33;88.63
37778;BME280;23615;51.506;7.678;2022-09-27T14:49:56;98268.44;;;11.40;88.40
37778;BME280;23615;51.506;7.678;2022-09-27T14:52:32;98271.91;;;11.40;89.08
37778;BME280;23615;51.506;7.678;2022-09-27T14:55:07;98262.56;;;11.43;88.98
37778;BME280;23615;51.506;7.678;2022-09-27T14:57:33;98256.97;;;11.44;88.47
37778;BME280;23615;51.506;7.678;2022-09-27T15:02:45;98268.69;;;11.48;88.13
37778;BME280;23615;51.506;7.678;2022-09-27T15:05:18;98266.25;;;11.57;87.42
37778;BME280;23615;51.506;7.678;2022-09-27T15:07:45;98268.13;;;11.56;87.75
37778;BME280;23615;51.506;7.678;2022-09-27T15:10:14;98265.75;;;11.55;87.72
37778;BME280;23615;51.506;7.678;2022-09-27T15:12:42;98271.34;;;11.53;87.89
37778;BME280;23615;51.506;7.678;2022-09-27T15:15:11;98274.00;;;11.63;87.95
37778;BME280;23615;51.506;7.678;2022-09-27T15:17:42;98278.25;;;11.59;87.94
37778;BME280;23615;51.506;7.678;2022-09-27T15:22:56;98276.09;;;11.67;87.47
37778;BME280;23615;51.506;7.678;2022-09-27T15:25:23;98276.63;;;11.69;87.46
37778;BME280;23615;51.506;7.678;2022-09-27T15:27:57;98275.28;;;11.66;87.25